This is the latest recevied weather packets stored in our database for station/object IZ1RFL-3. If no packets are shown the sender has not sent any weather packets the latest 10 day(s).
| Time | Temp. | Humidity | Pressure | Rain* | Wind** | Luminosity | Snow |
|---|---|---|---|---|---|---|---|
| 1778051767 | 14.44° C | 81% | 1009.1 hPa | - | - | - | - |
| 1778050866 | 14.44° C | 82% | 1009.1 hPa | - | - | - | - |
| 1778049966 | 14.44° C | 79% | 1009.2 hPa | - | - | - | - |
| 1778049066 | 15° C | 80% | 1009.1 hPa | - | - | - | - |
| 1778048166 | 13.89° C | 86% | 1009.4 hPa | - | - | - | - |
| 1778046366 | 13.33° C | 87% | 1009.5 hPa | - | - | - | - |
| 1778045466 | 12.78° C | 88% | 1009.7 hPa | - | - | - | - |
| 1778044566 | 12.78° C | 89% | 1009.7 hPa | - | - | - | - |
| 1778043666 | 12.78° C | 89% | 1009.7 hPa | - | - | - | - |
| 1778042767 | 12.22° C | 89% | 1009.9 hPa | - | - | - | - |
| 1778041866 | 12.22° C | 89% | 1010 hPa | - | - | - | - |
| 1778040966 | 12.22° C | 88% | 1010 hPa | - | - | - | - |
| 1778040066 | 12.78° C | 88% | 1010.4 hPa | - | - | - | - |
| 1778039166 | 12.78° C | 88% | 1010.2 hPa | - | - | - | - |
| 1778038267 | 12.78° C | 87% | 1010.6 hPa | - | - | - | - |
| 1778037366 | 12.78° C | 86% | 1010.6 hPa | - | - | - | - |
| 1778036466 | 12.78° C | 87% | 1010.6 hPa | - | - | - | - |
| 1778035566 | 12.78° C | 87% | 1011 hPa | - | - | - | - |
| 1778034666 | 12.78° C | 87% | 1011 hPa | - | - | - | - |
| 1778033766 | 12.78° C | 88% | 1011.3 hPa | - | - | - | - |
| 1778032866 | 12.22° C | 89% | 1011.3 hPa | - | - | - | - |
| 1778031966 | 12.22° C | 89% | 1011.1 hPa | - | - | - | - |
| 1778031066 | 12.78° C | 87% | 1011.1 hPa | - | - | - | - |
| 1778030166 | 12.78° C | 87% | 1011.5 hPa | - | - | - | - |
| 1778029266 | 12.78° C | 86% | 1011.8 hPa | - | - | - | - |
* Rain since midnight (hover to see other rain measurements)
** Current wind speed in m/s (hover to see current wind gust speed)